Terminal Aerodrome Forecast
Issued by NWS

Home | Current Version | Previous Version | Text Only | Print | Product List | Glossary On
Versions: 1 2 3 4 5 6 7 8 9 10 11 12 13 14 15 16 17 18 19 20 21 22 23
000
FTUS43 KGRB 300300 AAB
TAFCWA
TAF AMD
KCWA 300357Z 3004/3024 17010KT 6SM HZ VCTS SCT012CB SCT030 BKN080
      TEMPO 3004/3007 3SM SHRA BR BKN015 OVC040
     FM300700 20005KT 3SM BR VCSH OVC004
      TEMPO 3007/3011 1SM -SHRA BR OVC002
     FM301400 29006KT 5SM -SHRA BR OVC008
     FM301800 32008KT 5SM HZ BKN012 BKN035
      AMD LTD TO CLD VIS AND WIND 3003/3011=

USA.gov is the U.S. government's official web portal to all federal, state and local government web resources and services.